sensor_id;sensor_type;location;lat;lon;timestamp;P1;durP1;ratioP1;P2;durP2;ratioP2
10851;SDS011;5479;52.046;6.314;2023-09-30T00:01:49;14.17;;;6.60;;
10851;SDS011;5479;52.046;6.314;2023-09-30T00:04:18;20.37;;;6.80;;
10851;SDS011;5479;52.046;6.314;2023-09-30T00:06:47;12.77;;;6.20;;
10851;SDS011;5479;52.046;6.314;2023-09-30T00:09:15;14.43;;;6.07;;
10851;SDS011;5479;52.046;6.314;2023-09-30T00:11:43;13.00;;;6.37;;
10851;SDS011;5479;52.046;6.314;2023-09-30T00:14:11;12.90;;;5.37;;
10851;SDS011;5479;52.046;6.314;2023-09-30T00:16:39;13.63;;;5.83;;
10851;SDS011;5479;52.046;6.314;2023-09-30T00:19:07;13.23;;;6.27;;
10851;SDS011;5479;52.046;6.314;2023-09-30T00:21:36;11.40;;;6.10;;
10851;SDS011;5479;52.046;6.314;2023-09-30T00:24:05;12.30;;;6.23;;
10851;SDS011;5479;52.046;6.314;2023-09-30T00:26:34;12.53;;;5.93;;
10851;SDS011;5479;52.046;6.314;2023-09-30T00:29:02;11.17;;;5.20;;
10851;SDS011;5479;52.046;6.314;2023-09-30T00:31:31;12.60;;;5.87;;
10851;SDS011;5479;52.046;6.314;2023-09-30T00:33:59;12.60;;;5.77;;
10851;SDS011;5479;52.046;6.314;2023-09-30T00:36:27;13.17;;;6.00;;
10851;SDS011;5479;52.046;6.314;2023-09-30T00:38:55;11.80;;;6.33;;
10851;SDS011;5479;52.046;6.314;2023-09-30T00:41:25;11.97;;;6.13;;
10851;SDS011;5479;52.046;6.314;2023-09-30T00:43:53;13.17;;;6.40;;
10851;SDS011;5479;52.046;6.314;2023-09-30T00:46:25;12.97;;;6.73;;
10851;SDS011;5479;52.046;6.314;2023-09-30T00:48:54;15.53;;;6.60;;
10851;SDS011;5479;52.046;6.314;2023-09-30T00:51:23;11.00;;;5.67;;
10851;SDS011;5479;52.046;6.314;2023-09-30T00:53:52;14.33;;;7.23;;
10851;SDS011;5479;52.046;6.314;2023-09-30T00:56:22;13.27;;;6.50;;
10851;SDS011;5479;52.046;6.314;2023-09-30T00:58:54;14.80;;;6.80;;
10851;SDS011;5479;52.046;6.314;2023-09-30T01:01:23;15.40;;;6.67;;
10851;SDS011;5479;52.046;6.314;2023-09-30T01:03:51;15.60;;;7.13;;
10851;SDS011;5479;52.046;6.314;2023-09-30T01:06:19;13.10;;;6.80;;
10851;SDS011;5479;52.046;6.314;2023-09-30T01:08:47;14.77;;;6.90;;
10851;SDS011;5479;52.046;6.314;2023-09-30T01:11:15;14.90;;;6.90;;
10851;SDS011;5479;52.046;6.314;2023-09-30T01:13:44;11.93;;;7.10;;
10851;SDS011;5479;52.046;6.314;2023-09-30T01:16:15;17.30;;;7.87;;
10851;SDS011;5479;52.046;6.314;2023-09-30T01:18:43;11.77;;;6.73;;
10851;SDS011;5479;52.046;6.314;2023-09-30T01:21:10;12.97;;;6.80;;
10851;SDS011;5479;52.046;6.314;2023-09-30T01:23:40;14.43;;;7.23;;
10851;SDS011;5479;52.046;6.314;2023-09-30T01:26:11;14.43;;;7.17;;
10851;SDS011;5479;52.046;6.314;2023-09-30T01:28:40;15.07;;;8.13;;
10851;SDS011;5479;52.046;6.314;2023-09-30T01:31:08;14.87;;;7.80;;
10851;SDS011;5479;52.046;6.314;2023-09-30T01:33:38;15.00;;;8.17;;
10851;SDS011;5479;52.046;6.314;2023-09-30T01:36:06;13.60;;;7.70;;
10851;SDS011;5479;52.046;6.314;2023-09-30T01:38:34;12.50;;;7.43;;
10851;SDS011;5479;52.046;6.314;2023-09-30T01:41:04;14.47;;;8.03;;
10851;SDS011;5479;52.046;6.314;2023-09-30T01:43:32;13.23;;;8.00;;
10851;SDS011;5479;52.046;6.314;2023-09-30T01:46:02;21.20;;;9.30;;
10851;SDS011;5479;52.046;6.314;2023-09-30T01:48:31;13.33;;;8.03;;
10851;SDS011;5479;52.046;6.314;2023-09-30T01:50:59;12.17;;;7.20;;
10851;SDS011;5479;52.046;6.314;2023-09-30T01:53:27;19.00;;;7.93;;
10851;SDS011;5479;52.046;6.314;2023-09-30T01:55:56;16.00;;;8.17;;
10851;SDS011;5479;52.046;6.314;2023-09-30T01:58:25;15.17;;;7.67;;
10851;SDS011;5479;52.046;6.314;2023-09-30T02:00:53;12.33;;;7.03;;
10851;SDS011;5479;52.046;6.314;2023-09-30T02:03:21;14.33;;;7.30;;
10851;SDS011;5479;52.046;6.314;2023-09-30T02:05:49;12.30;;;7.43;;
10851;SDS011;5479;52.046;6.314;2023-09-30T02:08:17;13.07;;;7.57;;
10851;SDS011;5479;52.046;6.314;2023-09-30T02:10:45;13.57;;;7.83;;
10851;SDS011;5479;52.046;6.314;2023-09-30T02:13:13;11.50;;;7.33;;
10851;SDS011;5479;52.046;6.314;2023-09-30T02:15:43;14.30;;;8.43;;
10851;SDS011;5479;52.046;6.314;2023-09-30T02:18:11;13.53;;;7.43;;
10851;SDS011;5479;52.046;6.314;2023-09-30T02:20:40;16.80;;;8.27;;
10851;SDS011;5479;52.046;6.314;2023-09-30T02:23:08;14.63;;;8.07;;
10851;SDS011;5479;52.046;6.314;2023-09-30T02:25:37;16.73;;;8.50;;
10851;SDS011;5479;52.046;6.314;2023-09-30T02:28:05;18.00;;;9.23;;
10851;SDS011;5479;52.046;6.314;2023-09-30T02:30:35;18.70;;;8.80;;
10851;SDS011;5479;52.046;6.314;2023-09-30T02:33:04;15.23;;;9.07;;
10851;SDS011;5479;52.046;6.314;2023-09-30T02:35:33;14.40;;;7.93;;
10851;SDS011;5479;52.046;6.314;2023-09-30T02:38:01;13.67;;;8.53;;
10851;SDS011;5479;52.046;6.314;2023-09-30T02:40:29;15.73;;;8.33;;
10851;SDS011;5479;52.046;6.314;2023-09-30T02:42:57;12.77;;;7.80;;
10851;SDS011;5479;52.046;6.314;2023-09-30T02:45:25;15.63;;;8.40;;
10851;SDS011;5479;52.046;6.314;2023-09-30T02:47:53;15.10;;;8.17;;
10851;SDS011;5479;52.046;6.314;2023-09-30T02:50:22;12.87;;;7.17;;
10851;SDS011;5479;52.046;6.314;2023-09-30T02:52:50;13.90;;;8.07;;
10851;SDS011;5479;52.046;6.314;2023-09-30T02:55:18;14.60;;;8.07;;
10851;SDS011;5479;52.046;6.314;2023-09-30T02:57:47;13.57;;;8.30;;
10851;SDS011;5479;52.046;6.314;2023-09-30T03:00:15;14.40;;;8.07;;
10851;SDS011;5479;52.046;6.314;2023-09-30T03:02:49;12.80;;;8.03;;
10851;SDS011;5479;52.046;6.314;2023-09-30T03:05:19;15.10;;;8.07;;
10851;SDS011;5479;52.046;6.314;2023-09-30T03:07:49;13.57;;;7.80;;
10851;SDS011;5479;52.046;6.314;2023-09-30T03:10:18;12.33;;;8.13;;
10851;SDS011;5479;52.046;6.314;2023-09-30T03:12:46;19.60;;;9.50;;
10851;SDS011;5479;52.046;6.314;2023-09-30T03:15:15;16.27;;;9.30;;
10851;SDS011;5479;52.046;6.314;2023-09-30T03:17:43;15.03;;;9.50;;
10851;SDS011;5479;52.046;6.314;2023-09-30T03:20:11;14.03;;;8.50;;
10851;SDS011;5479;52.046;6.314;2023-09-30T03:22:41;13.87;;;8.77;;
10851;SDS011;5479;52.046;6.314;2023-09-30T03:25:11;15.03;;;9.90;;
10851;SDS011;5479;52.046;6.314;2023-09-30T03:27:38;13.17;;;8.80;;
10851;SDS011;5479;52.046;6.314;2023-09-30T03:30:08;11.93;;;8.27;;
10851;SDS011;5479;52.046;6.314;2023-09-30T03:32:38;15.10;;;8.87;;
10851;SDS011;5479;52.046;6.314;2023-09-30T03:35:06;13.80;;;8.93;;
10851;SDS011;5479;52.046;6.314;2023-09-30T03:37:37;14.33;;;9.33;;
10851;SDS011;5479;52.046;6.314;2023-09-30T03:40:05;13.97;;;9.13;;
10851;SDS011;5479;52.046;6.314;2023-09-30T03:42:42;14.30;;;10.20;;
10851;SDS011;5479;52.046;6.314;2023-09-30T03:45:10;15.10;;;9.57;;
10851;SDS011;5479;52.046;6.314;2023-09-30T03:47:40;15.50;;;10.57;;
10851;SDS011;5479;52.046;6.314;2023-09-30T03:50:10;16.00;;;10.50;;
10851;SDS011;5479;52.046;6.314;2023-09-30T03:52:41;20.13;;;11.40;;
10851;SDS011;5479;52.046;6.314;2023-09-30T03:55:10;17.47;;;11.57;;
10851;SDS011;5479;52.046;6.314;2023-09-30T03:57:39;18.13;;;11.63;;
10851;SDS011;5479;52.046;6.314;2023-09-30T04:00:09;17.07;;;10.93;;
10851;SDS011;5479;52.046;6.314;2023-09-30T04:02:42;16.60;;;11.00;;
10851;SDS011;5479;52.046;6.314;2023-09-30T04:05:14;17.63;;;11.47;;
10851;SDS011;5479;52.046;6.314;2023-09-30T04:07:43;16.13;;;11.90;;
10851;SDS011;5479;52.046;6.314;2023-09-30T04:10:11;18.20;;;12.17;;
10851;SDS011;5479;52.046;6.314;2023-09-30T04:12:39;17.70;;;11.80;;
10851;SDS011;5479;52.046;6.314;2023-09-30T04:15:09;16.57;;;11.20;;
10851;SDS011;5479;52.046;6.314;2023-09-30T04:17:38;15.27;;;11.60;;
10851;SDS011;5479;52.046;6.314;2023-09-30T04:20:07;17.67;;;11.63;;
10851;SDS011;5479;52.046;6.314;2023-09-30T04:22:37;18.57;;;12.40;;
10851;SDS011;5479;52.046;6.314;2023-09-30T04:25:06;15.77;;;11.57;;
10851;SDS011;5479;52.046;6.314;2023-09-30T04:27:37;17.73;;;12.10;;
10851;SDS011;5479;52.046;6.314;2023-09-30T04:30:05;19.67;;;12.63;;
10851;SDS011;5479;52.046;6.314;2023-09-30T04:32:38;17.40;;;12.33;;
10851;SDS011;5479;52.046;6.314;2023-09-30T04:35:06;16.93;;;12.87;;
10851;SDS011;5479;52.046;6.314;2023-09-30T04:37:35;18.03;;;12.43;;
10851;SDS011;5479;52.046;6.314;2023-09-30T04:40:04;18.07;;;12.30;;
10851;SDS011;5479;52.046;6.314;2023-09-30T04:42:41;17.73;;;12.40;;
10851;SDS011;5479;52.046;6.314;2023-09-30T04:45:10;15.57;;;11.90;;
10851;SDS011;5479;52.046;6.314;2023-09-30T04:47:40;15.70;;;11.53;;
10851;SDS011;5479;52.046;6.314;2023-09-30T04:50:10;19.87;;;12.80;;
10851;SDS011;5479;52.046;6.314;2023-09-30T04:52:42;27.13;;;13.20;;
10851;SDS011;5479;52.046;6.314;2023-09-30T04:55:11;18.37;;;13.20;;
10851;SDS011;5479;52.046;6.314;2023-09-30T04:57:42;19.50;;;13.00;;
10851;SDS011;5479;52.046;6.314;2023-09-30T05:00:13;19.33;;;12.77;;
10851;SDS011;5479;52.046;6.314;2023-09-30T05:02:45;14.80;;;12.10;;
10851;SDS011;5479;52.046;6.314;2023-09-30T05:05:14;20.63;;;13.90;;
10851;SDS011;5479;52.046;6.314;2023-09-30T05:07:42;18.87;;;13.13;;
10851;SDS011;5479;52.046;6.314;2023-09-30T05:10:10;22.53;;;14.13;;
10851;SDS011;5479;52.046;6.314;2023-09-30T05:12:42;18.30;;;13.30;;
10851;SDS011;5479;52.046;6.314;2023-09-30T05:15:12;21.80;;;13.73;;
10851;SDS011;5479;52.046;6.314;2023-09-30T05:17:41;20.93;;;15.13;;
10851;SDS011;5479;52.046;6.314;2023-09-30T05:20:12;22.53;;;15.07;;
10851;SDS011;5479;52.046;6.314;2023-09-30T05:22:42;19.90;;;13.40;;
10851;SDS011;5479;52.046;6.314;2023-09-30T05:25:12;17.57;;;12.90;;
10851;SDS011;5479;52.046;6.314;2023-09-30T05:27:42;20.43;;;14.83;;
10851;SDS011;5479;52.046;6.314;2023-09-30T05:30:12;18.93;;;14.43;;
10851;SDS011;5479;52.046;6.314;2023-09-30T05:32:41;19.17;;;14.40;;
10851;SDS011;5479;52.046;6.314;2023-09-30T05:35:09;20.93;;;14.53;;
10851;SDS011;5479;52.046;6.314;2023-09-30T05:37:41;18.77;;;14.33;;
10851;SDS011;5479;52.046;6.314;2023-09-30T05:40:08;20.27;;;14.63;;
10851;SDS011;5479;52.046;6.314;2023-09-30T05:42:46;18.80;;;13.83;;
10851;SDS011;5479;52.046;6.314;2023-09-30T05:45:14;20.47;;;14.97;;
10851;SDS011;5479;52.046;6.314;2023-09-30T05:47:43;17.93;;;14.93;;
10851;SDS011;5479;52.046;6.314;2023-09-30T05:50:11;20.47;;;14.77;;
10851;SDS011;5479;52.046;6.314;2023-09-30T05:52:44;22.60;;;14.57;;
10851;SDS011;5479;52.046;6.314;2023-09-30T05:55:12;23.60;;;15.27;;
10851;SDS011;5479;52.046;6.314;2023-09-30T05:57:42;22.53;;;15.33;;
10851;SDS011;5479;52.046;6.314;2023-09-30T06:00:11;21.90;;;15.10;;
10851;SDS011;5479;52.046;6.314;2023-09-30T06:02:46;18.23;;;13.80;;
10851;SDS011;5479;52.046;6.314;2023-09-30T06:05:15;18.67;;;14.20;;
10851;SDS011;5479;52.046;6.314;2023-09-30T06:07:46;19.33;;;14.10;;
10851;SDS011;5479;52.046;6.314;2023-09-30T06:10:14;19.47;;;13.73;;
10851;SDS011;5479;52.046;6.314;2023-09-30T06:12:45;21.17;;;13.80;;
10851;SDS011;5479;52.046;6.314;2023-09-30T06:15:13;21.73;;;14.00;;
10851;SDS011;5479;52.046;6.314;2023-09-30T06:17:42;18.50;;;13.50;;
10851;SDS011;5479;52.046;6.314;2023-09-30T06:20:10;16.80;;;12.63;;
10851;SDS011;5479;52.046;6.314;2023-09-30T06:22:44;18.60;;;13.83;;
10851;SDS011;5479;52.046;6.314;2023-09-30T06:25:15;15.20;;;11.70;;
10851;SDS011;5479;52.046;6.314;2023-09-30T06:27:43;15.77;;;12.67;;
10851;SDS011;5479;52.046;6.314;2023-09-30T06:30:12;16.87;;;11.70;;
10851;SDS011;5479;52.046;6.314;2023-09-30T06:32:42;17.50;;;12.40;;
10851;SDS011;5479;52.046;6.314;2023-09-30T06:35:11;17.47;;;12.00;;
10851;SDS011;5479;52.046;6.314;2023-09-30T06:37:41;17.47;;;11.97;;
10851;SDS011;5479;52.046;6.314;2023-09-30T06:40:11;16.80;;;12.40;;
10851;SDS011;5479;52.046;6.314;2023-09-30T06:42:41;14.93;;;11.93;;
10851;SDS011;5479;52.046;6.314;2023-09-30T06:45:09;16.97;;;12.37;;
10851;SDS011;5479;52.046;6.314;2023-09-30T06:47:39;14.80;;;11.30;;
10851;SDS011;5479;52.046;6.314;2023-09-30T06:50:09;15.90;;;11.50;;
10851;SDS011;5479;52.046;6.314;2023-09-30T06:52:39;16.40;;;11.67;;
10851;SDS011;5479;52.046;6.314;2023-09-30T06:55:09;16.63;;;12.07;;
10851;SDS011;5479;52.046;6.314;2023-09-30T06:57:37;16.30;;;12.03;;
10851;SDS011;5479;52.046;6.314;2023-09-30T07:00:09;14.60;;;11.63;;
10851;SDS011;5479;52.046;6.314;2023-09-30T07:02:38;15.47;;;11.73;;
10851;SDS011;5479;52.046;6.314;2023-09-30T07:05:07;16.10;;;12.43;;
10851;SDS011;5479;52.046;6.314;2023-09-30T07:07:36;13.67;;;11.60;;
10851;SDS011;5479;52.046;6.314;2023-09-30T07:10:05;16.00;;;12.47;;
10851;SDS011;5479;52.046;6.314;2023-09-30T07:12:34;17.57;;;12.47;;
10851;SDS011;5479;52.046;6.314;2023-09-30T07:15:02;15.30;;;12.20;;
10851;SDS011;5479;52.046;6.314;2023-09-30T07:17:33;14.73;;;11.37;;
10851;SDS011;5479;52.046;6.314;2023-09-30T07:20:01;15.73;;;11.03;;
10851;SDS011;5479;52.046;6.314;2023-09-30T07:22:31;14.60;;;10.37;;
10851;SDS011;5479;52.046;6.314;2023-09-30T07:25:00;13.50;;;9.93;;
10851;SDS011;5479;52.046;6.314;2023-09-30T07:27:28;11.52;;;9.20;;
10851;SDS011;5479;52.046;6.314;2023-09-30T07:29:56;13.05;;;9.35;;
10851;SDS011;5479;52.046;6.314;2023-09-30T07:32:23;11.73;;;9.13;;
10851;SDS011;5479;52.046;6.314;2023-09-30T07:34:54;13.70;;;9.32;;
10851;SDS011;5479;52.046;6.314;2023-09-30T07:37:23;11.93;;;8.98;;
10851;SDS011;5479;52.046;6.314;2023-09-30T07:39:51;11.82;;;8.70;;
10851;SDS011;5479;52.046;6.314;2023-09-30T07:42:19;12.40;;;8.23;;
10851;SDS011;5479;52.046;6.314;2023-09-30T07:44:48;14.25;;;9.80;;
10851;SDS011;5479;52.046;6.314;2023-09-30T07:47:17;14.27;;;8.90;;
10851;SDS011;5479;52.046;6.314;2023-09-30T07:49:44;15.77;;;9.25;;
10851;SDS011;5479;52.046;6.314;2023-09-30T07:52:14;14.73;;;8.55;;
10851;SDS011;5479;52.046;6.314;2023-09-30T07:54:42;11.32;;;8.02;;
10851;SDS011;5479;52.046;6.314;2023-09-30T07:57:10;13.65;;;8.35;;
10851;SDS011;5479;52.046;6.314;2023-09-30T07:59:38;11.90;;;7.53;;
10851;SDS011;5479;52.046;6.314;2023-09-30T08:02:05;12.43;;;7.80;;
10851;SDS011;5479;52.046;6.314;2023-09-30T08:04:34;13.40;;;8.95;;
10851;SDS011;5479;52.046;6.314;2023-09-30T08:07:03;11.40;;;7.53;;
10851;SDS011;5479;52.046;6.314;2023-09-30T08:09:32;14.15;;;8.30;;
10851;SDS011;5479;52.046;6.314;2023-09-30T08:12:00;13.32;;;7.85;;
10851;SDS011;5479;52.046;6.314;2023-09-30T08:14:30;15.52;;;8.18;;
10851;SDS011;5479;52.046;6.314;2023-09-30T08:16:58;13.20;;;7.80;;
10851;SDS011;5479;52.046;6.314;2023-09-30T08:19:26;13.55;;;8.50;;
10851;SDS011;5479;52.046;6.314;2023-09-30T08:21:54;14.48;;;7.63;;
10851;SDS011;5479;52.046;6.314;2023-09-30T08:24:22;12.13;;;8.25;;
10851;SDS011;5479;52.046;6.314;2023-09-30T08:26:51;13.15;;;7.55;;
10851;SDS011;5479;52.046;6.314;2023-09-30T08:29:19;13.95;;;8.52;;
10851;SDS011;5479;52.046;6.314;2023-09-30T08:31:48;14.68;;;8.43;;
10851;SDS011;5479;52.046;6.314;2023-09-30T08:34:16;11.20;;;6.60;;
10851;SDS011;5479;52.046;6.314;2023-09-30T08:36:46;12.23;;;7.55;;
10851;SDS011;5479;52.046;6.314;2023-09-30T08:39:14;12.82;;;7.97;;
10851;SDS011;5479;52.046;6.314;2023-09-30T08:41:42;10.98;;;7.18;;
10851;SDS011;5479;52.046;6.314;2023-09-30T08:44:13;14.45;;;8.65;;
10851;SDS011;5479;52.046;6.314;2023-09-30T08:46:41;12.50;;;7.20;;
10851;SDS011;5479;52.046;6.314;2023-09-30T08:49:09;10.32;;;6.88;;
10851;SDS011;5479;52.046;6.314;2023-09-30T08:51:40;11.77;;;7.10;;
10851;SDS011;5479;52.046;6.314;2023-09-30T08:54:09;10.70;;;6.95;;
10851;SDS011;5479;52.046;6.314;2023-09-30T08:56:37;10.93;;;7.00;;
10851;SDS011;5479;52.046;6.314;2023-09-30T08:59:12;14.10;;;8.65;;
10851;SDS011;5479;52.046;6.314;2023-09-30T09:01:41;11.20;;;7.05;;
10851;SDS011;5479;52.046;6.314;2023-09-30T09:04:10;10.98;;;7.15;;
10851;SDS011;5479;52.046;6.314;2023-09-30T09:06:38;12.07;;;7.22;;
10851;SDS011;5479;52.046;6.314;2023-09-30T09:09:15;13.18;;;7.60;;
10851;SDS011;5479;52.046;6.314;2023-09-30T09:11:44;13.77;;;7.72;;
10851;SDS011;5479;52.046;6.314;2023-09-30T09:14:14;12.60;;;7.80;;
10851;SDS011;5479;52.046;6.314;2023-09-30T09:16:52;11.30;;;6.78;;
10851;SDS011;5479;52.046;6.314;2023-09-30T09:19:22;13.98;;;7.63;;
10851;SDS011;5479;52.046;6.314;2023-09-30T09:21:54;11.60;;;7.35;;
10851;SDS011;5479;52.046;6.314;2023-09-30T09:24:28;11.15;;;7.40;;
10851;SDS011;5479;52.046;6.314;2023-09-30T09:27:04;15.05;;;8.45;;
10851;SDS011;5479;52.046;6.314;2023-09-30T09:29:34;14.25;;;7.65;;
10851;SDS011;5479;52.046;6.314;2023-09-30T09:32:09;14.70;;;7.80;;
10851;SDS011;5479;52.046;6.314;2023-09-30T09:34:38;12.85;;;7.45;;
10851;SDS011;5479;52.046;6.314;2023-09-30T09:37:14;11.88;;;7.70;;
10851;SDS011;5479;52.046;6.314;2023-09-30T09:39:50;11.20;;;6.57;;
10851;SDS011;5479;52.046;6.314;2023-09-30T09:42:26;11.38;;;7.00;;
10851;SDS011;5479;52.046;6.314;2023-09-30T09:44:59;13.55;;;7.65;;
10851;SDS011;5479;52.046;6.314;2023-09-30T09:47:28;12.32;;;7.82;;
10851;SDS011;5479;52.046;6.314;2023-09-30T09:50:02;11.93;;;7.70;;
10851;SDS011;5479;52.046;6.314;2023-09-30T09:52:31;11.93;;;6.93;;
10851;SDS011;5479;52.046;6.314;2023-09-30T09:55:02;13.30;;;7.68;;
10851;SDS011;5479;52.046;6.314;2023-09-30T09:57:32;12.90;;;7.53;;
10851;SDS011;5479;52.046;6.314;2023-09-30T10:00:02;12.65;;;7.32;;
10851;SDS011;5479;52.046;6.314;2023-09-30T10:02:40;14.07;;;7.50;;
10851;SDS011;5479;52.046;6.314;2023-09-30T10:05:08;13.45;;;7.72;;
10851;SDS011;5479;52.046;6.314;2023-09-30T10:07:38;12.85;;;7.45;;
10851;SDS011;5479;52.046;6.314;2023-09-30T10:10:11;12.75;;;7.70;;
10851;SDS011;5479;52.046;6.314;2023-09-30T10:12:42;14.15;;;7.38;;
10851;SDS011;5479;52.046;6.314;2023-09-30T10:18:10;13.02;;;7.40;;
10851;SDS011;5479;52.046;6.314;2023-09-30T10:20:40;11.32;;;6.53;;
10851;SDS011;5479;52.046;6.314;2023-09-30T10:23:17;13.68;;;6.85;;
10851;SDS011;5479;52.046;6.314;2023-09-30T10:25:52;13.38;;;7.80;;
10851;SDS011;5479;52.046;6.314;2023-09-30T10:28:37;11.52;;;6.38;;
10851;SDS011;5479;52.046;6.314;2023-09-30T10:31:10;13.40;;;8.00;;
10851;SDS011;5479;52.046;6.314;2023-09-30T10:36:41;11.73;;;7.10;;
10851;SDS011;5479;52.046;6.314;2023-09-30T10:39:10;11.63;;;6.03;;
10851;SDS011;5479;52.046;6.314;2023-09-30T10:41:50;11.75;;;7.47;;
10851;SDS011;5479;52.046;6.314;2023-09-30T10:44:33;13.90;;;7.43;;
10851;SDS011;5479;52.046;6.314;2023-09-30T10:50:04;14.07;;;7.00;;
10851;SDS011;5479;52.046;6.314;2023-09-30T10:53:21;11.07;;;6.47;;
10851;SDS011;5479;52.046;6.314;2023-09-30T10:55:53;12.15;;;6.57;;
10851;SDS011;5479;52.046;6.314;2023-09-30T10:58:34;14.43;;;7.35;;
10851;SDS011;5479;52.046;6.314;2023-09-30T11:01:06;12.45;;;6.60;;
10851;SDS011;5479;52.046;6.314;2023-09-30T11:03:35;14.35;;;7.32;;
10851;SDS011;5479;52.046;6.314;2023-09-30T11:06:11;11.75;;;6.22;;
10851;SDS011;5479;52.046;6.314;2023-09-30T11:08:44;14.18;;;6.60;;
10851;SDS011;5479;52.046;6.314;2023-09-30T11:11:14;12.13;;;6.57;;
10851;SDS011;5479;52.046;6.314;2023-09-30T11:13:44;10.40;;;5.03;;
10851;SDS011;5479;52.046;6.314;2023-09-30T11:16:12;11.80;;;5.20;;
10851;SDS011;5479;52.046;6.314;2023-09-30T11:18:43;10.90;;;5.10;;
10851;SDS011;5479;52.046;6.314;2023-09-30T11:21:11;8.27;;;4.70;;
10851;SDS011;5479;52.046;6.314;2023-09-30T11:23:40;10.73;;;5.18;;
10851;SDS011;5479;52.046;6.314;2023-09-30T11:26:11;9.43;;;4.75;;
10851;SDS011;5479;52.046;6.314;2023-09-30T11:28:40;11.38;;;5.18;;
10851;SDS011;5479;52.046;6.314;2023-09-30T11:31:10;12.93;;;5.40;;
10851;SDS011;5479;52.046;6.314;2023-09-30T11:33:51;11.23;;;4.72;;
10851;SDS011;5479;52.046;6.314;2023-09-30T11:36:23;12.45;;;5.45;;
10851;SDS011;5479;52.046;6.314;2023-09-30T11:38:52;12.55;;;5.05;;
10851;SDS011;5479;52.046;6.314;2023-09-30T11:41:20;12.90;;;4.85;;
10851;SDS011;5479;52.046;6.314;2023-09-30T11:43:58;12.68;;;5.57;;
10851;SDS011;5479;52.046;6.314;2023-09-30T11:46:27;11.85;;;5.50;;
10851;SDS011;5479;52.046;6.314;2023-09-30T11:48:58;10.90;;;5.35;;
10851;SDS011;5479;52.046;6.314;2023-09-30T11:51:27;12.52;;;6.05;;
10851;SDS011;5479;52.046;6.314;2023-09-30T11:53:57;11.85;;;5.72;;
10851;SDS011;5479;52.046;6.314;2023-09-30T11:56:33;13.13;;;5.93;;
10851;SDS011;5479;52.046;6.314;2023-09-30T11:59:02;11.18;;;5.60;;
10851;SDS011;5479;52.046;6.314;2023-09-30T12:01:30;12.77;;;5.32;;
10851;SDS011;5479;52.046;6.314;2023-09-30T12:04:01;11.52;;;5.82;;
10851;SDS011;5479;52.046;6.314;2023-09-30T12:06:31;11.38;;;4.75;;
10851;SDS011;5479;52.046;6.314;2023-09-30T12:09:00;9.63;;;4.80;;
10851;SDS011;5479;52.046;6.314;2023-09-30T12:11:29;9.60;;;4.60;;
10851;SDS011;5479;52.046;6.314;2023-09-30T12:13:57;11.13;;;4.43;;
10851;SDS011;5479;52.046;6.314;2023-09-30T12:16:25;8.70;;;4.07;;
10851;SDS011;5479;52.046;6.314;2023-09-30T12:18:53;12.30;;;5.13;;
10851;SDS011;5479;52.046;6.314;2023-09-30T12:21:22;11.55;;;4.65;;
10851;SDS011;5479;52.046;6.314;2023-09-30T12:23:50;10.63;;;4.00;;
10851;SDS011;5479;52.046;6.314;2023-09-30T12:26:18;10.45;;;4.28;;
10851;SDS011;5479;52.046;6.314;2023-09-30T12:28:46;10.68;;;6.15;;
10851;SDS011;5479;52.046;6.314;2023-09-30T12:31:15;10.90;;;5.82;;
10851;SDS011;5479;52.046;6.314;2023-09-30T12:33:44;9.48;;;4.00;;
10851;SDS011;5479;52.046;6.314;2023-09-30T12:36:17;10.15;;;4.20;;
10851;SDS011;5479;52.046;6.314;2023-09-30T12:38:47;8.63;;;3.38;;
10851;SDS011;5479;52.046;6.314;2023-09-30T12:41:15;7.50;;;3.42;;
10851;SDS011;5479;52.046;6.314;2023-09-30T12:43:45;8.88;;;3.50;;
10851;SDS011;5479;52.046;6.314;2023-09-30T12:46:13;10.85;;;3.65;;
10851;SDS011;5479;52.046;6.314;2023-09-30T12:48:41;8.23;;;3.60;;
10851;SDS011;5479;52.046;6.314;2023-09-30T12:51:11;8.32;;;3.35;;
10851;SDS011;5479;52.046;6.314;2023-09-30T12:53:39;11.13;;;3.75;;
10851;SDS011;5479;52.046;6.314;2023-09-30T12:56:08;8.93;;;3.67;;
10851;SDS011;5479;52.046;6.314;2023-09-30T12:58:36;9.30;;;3.63;;
10851;SDS011;5479;52.046;6.314;2023-09-30T13:01:05;9.32;;;3.33;;
10851;SDS011;5479;52.046;6.314;2023-09-30T13:03:34;8.80;;;3.95;;
10851;SDS011;5479;52.046;6.314;2023-09-30T13:06:02;9.52;;;3.88;;
10851;SDS011;5479;52.046;6.314;2023-09-30T13:08:31;12.70;;;3.78;;
10851;SDS011;5479;52.046;6.314;2023-09-30T13:11:00;9.70;;;4.07;;
10851;SDS011;5479;52.046;6.314;2023-09-30T13:13:30;9.68;;;4.10;;
10851;SDS011;5479;52.046;6.314;2023-09-30T13:15:59;8.05;;;3.80;;
10851;SDS011;5479;52.046;6.314;2023-09-30T13:18:27;7.95;;;3.55;;
10851;SDS011;5479;52.046;6.314;2023-09-30T13:20:55;8.30;;;3.67;;
10851;SDS011;5479;52.046;6.314;2023-09-30T13:23:23;10.85;;;3.75;;
10851;SDS011;5479;52.046;6.314;2023-09-30T13:25:53;9.90;;;3.58;;
10851;SDS011;5479;52.046;6.314;2023-09-30T13:28:20;7.80;;;3.40;;
10851;SDS011;5479;52.046;6.314;2023-09-30T13:30:50;8.35;;;3.50;;
10851;SDS011;5479;52.046;6.314;2023-09-30T13:33:19;8.68;;;3.40;;
10851;SDS011;5479;52.046;6.314;2023-09-30T13:35:47;13.40;;;4.22;;
10851;SDS011;5479;52.046;6.314;2023-09-30T13:38:16;8.32;;;3.63;;
10851;SDS011;5479;52.046;6.314;2023-09-30T13:40:44;7.72;;;3.45;;
10851;SDS011;5479;52.046;6.314;2023-09-30T13:43:13;9.25;;;3.38;;
10851;SDS011;5479;52.046;6.314;2023-09-30T13:45:41;8.48;;;3.67;;
10851;SDS011;5479;52.046;6.314;2023-09-30T13:48:10;10.57;;;3.80;;
10851;SDS011;5479;52.046;6.314;2023-09-30T13:50:38;10.10;;;3.63;;
10851;SDS011;5479;52.046;6.314;2023-09-30T13:53:06;8.95;;;3.80;;
10851;SDS011;5479;52.046;6.314;2023-09-30T13:55:37;8.45;;;3.63;;
10851;SDS011;5479;52.046;6.314;2023-09-30T13:58:05;10.23;;;3.78;;
10851;SDS011;5479;52.046;6.314;2023-09-30T14:00:33;8.90;;;3.70;;
10851;SDS011;5479;52.046;6.314;2023-09-30T14:03:01;9.20;;;3.67;;
10851;SDS011;5479;52.046;6.314;2023-09-30T14:05:31;8.52;;;3.95;;
10851;SDS011;5479;52.046;6.314;2023-09-30T14:07:59;9.43;;;3.78;;
10851;SDS011;5479;52.046;6.314;2023-09-30T14:10:30;7.72;;;3.50;;
10851;SDS011;5479;52.046;6.314;2023-09-30T14:12:57;11.07;;;4.15;;
10851;SDS011;5479;52.046;6.314;2023-09-30T14:15:25;10.00;;;3.80;;
10851;SDS011;5479;52.046;6.314;2023-09-30T14:17:54;8.65;;;3.75;;
10851;SDS011;5479;52.046;6.314;2023-09-30T14:20:22;10.27;;;4.38;;
10851;SDS011;5479;52.046;6.314;2023-09-30T14:22:52;10.07;;;3.80;;
10851;SDS011;5479;52.046;6.314;2023-09-30T14:25:21;9.18;;;4.30;;
10851;SDS011;5479;52.046;6.314;2023-09-30T14:27:49;9.73;;;3.72;;
10851;SDS011;5479;52.046;6.314;2023-09-30T14:30:17;14.85;;;4.38;;
10851;SDS011;5479;52.046;6.314;2023-09-30T14:32:46;8.77;;;3.70;;
10851;SDS011;5479;52.046;6.314;2023-09-30T14:35:14;11.35;;;3.92;;
10851;SDS011;5479;52.046;6.314;2023-09-30T14:37:42;9.65;;;4.32;;
10851;SDS011;5479;52.046;6.314;2023-09-30T14:40:11;9.70;;;4.07;;
10851;SDS011;5479;52.046;6.314;2023-09-30T14:42:39;8.55;;;3.80;;
10851;SDS011;5479;52.046;6.314;2023-09-30T14:45:08;13.02;;;4.15;;
10851;SDS011;5479;52.046;6.314;2023-09-30T14:47:37;10.02;;;3.67;;
10851;SDS011;5479;52.046;6.314;2023-09-30T14:50:06;8.93;;;3.92;;
10851;SDS011;5479;52.046;6.314;2023-09-30T14:52:34;11.80;;;4.03;;
10851;SDS011;5479;52.046;6.314;2023-09-30T14:55:03;7.53;;;3.33;;
10851;SDS011;5479;52.046;6.314;2023-09-30T14:57:33;9.50;;;3.90;;
10851;SDS011;5479;52.046;6.314;2023-09-30T15:00:00;10.00;;;4.03;;
10851;SDS011;5479;52.046;6.314;2023-09-30T15:02:29;8.82;;;3.55;;
10851;SDS011;5479;52.046;6.314;2023-09-30T15:04:57;7.88;;;3.17;;
10851;SDS011;5479;52.046;6.314;2023-09-30T15:07:24;9.02;;;4.30;;
10851;SDS011;5479;52.046;6.314;2023-09-30T15:09:52;9.40;;;3.97;;